sensor_id;sensor_type;location;lat;lon;timestamp;pressure;altitude;pressure_sealevel;temperature;humidity
21011;BME280;10663;42.714;23.274;2022-09-09T00:03:26;95009.06;;;17.90;78.93
21011;BME280;10663;42.714;23.274;2022-09-09T00:05:20;95001.69;;;17.96;79.18
21011;BME280;10663;42.714;23.274;2022-09-09T00:07:37;94997.28;;;17.78;78.18
21011;BME280;10663;42.714;23.274;2022-09-09T00:09:07;94996.72;;;17.67;78.74
21011;BME280;10663;42.714;23.274;2022-09-09T00:10:41;94997.63;;;17.49;78.55
21011;BME280;10663;42.714;23.274;2022-09-09T00:12:17;94997.06;;;17.38;79.00
21011;BME280;10663;42.714;23.274;2022-09-09T00:13:52;95003.78;;;17.36;79.35
21011;BME280;10663;42.714;23.274;2022-09-09T00:17:37;95002.41;;;17.38;80.03
21011;BME280;10663;42.714;23.274;2022-09-09T00:19:27;94991.47;;;17.48;80.27
21011;BME280;10663;42.714;23.274;2022-09-09T00:21:15;94990.56;;;17.67;79.92
21011;BME280;10663;42.714;23.274;2022-09-09T00:22:59;94989.66;;;17.71;79.77
21011;BME280;10663;42.714;23.274;2022-09-09T00:24:45;94980.81;;;17.84;77.97
21011;BME280;10663;42.714;23.274;2022-09-09T00:28:19;94970.88;;;18.07;78.81
21011;BME280;10663;42.714;23.274;2022-09-09T00:29:58;94974.97;;;18.05;79.08
21011;BME280;10663;42.714;23.274;2022-09-09T00:31:31;94968.69;;;18.09;79.16
21011;BME280;10663;42.714;23.274;2022-09-09T00:33:11;94968.81;;;18.04;78.15
21011;BME280;10663;42.714;23.274;2022-09-09T00:35:04;94961.94;;;18.12;79.22
21011;BME280;10663;42.714;23.274;2022-09-09T00:36:43;94955.25;;;18.01;79.20
21011;BME280;10663;42.714;23.274;2022-09-09T00:38:30;94958.75;;;17.87;79.34
21011;BME280;10663;42.714;23.274;2022-09-09T00:40:16;94958.75;;;17.87;79.95
21011;BME280;10663;42.714;23.274;2022-09-09T00:43:40;94960.63;;;17.87;79.28
21011;BME280;10663;42.714;23.274;2022-09-09T00:50:59;94973.84;;;17.47;80.44
21011;BME280;10663;42.714;23.274;2022-09-09T00:52:42;94960.91;;;17.49;80.41
21011;BME280;10663;42.714;23.274;2022-09-09T00:56:17;94961.91;;;17.53;80.37
21011;BME280;10663;42.714;23.274;2022-09-09T00:57:52;94961.31;;;17.56;80.85
21011;BME280;10663;42.714;23.274;2022-09-09T01:01:45;94959.66;;;17.47;80.82
21011;BME280;10663;42.714;23.274;2022-09-09T01:03:35;94970.47;;;17.42;80.46
21011;BME280;10663;42.714;23.274;2022-09-09T01:05:24;94969.13;;;17.17;80.03
21011;BME280;10663;42.714;23.274;2022-09-09T01:07:06;94970.09;;;17.21;81.12
21011;BME280;10663;42.714;23.274;2022-09-09T01:12:28;94978.91;;;16.94;81.49
21011;BME280;10663;42.714;23.274;2022-09-09T01:14:24;94972.97;;;16.97;82.39
21011;BME280;10663;42.714;23.274;2022-09-09T01:16:04;94981.69;;;17.03;82.06
21011;BME280;10663;42.714;23.274;2022-09-09T01:17:57;94980.22;;;17.10;82.46
21011;BME280;10663;42.714;23.274;2022-09-09T01:19:40;94978.13;;;17.21;81.92
21011;BME280;10663;42.714;23.274;2022-09-09T01:21:41;94970.28;;;17.25;80.77
21011;BME280;10663;42.714;23.274;2022-09-09T01:27:06;94964.63;;;17.12;81.42
21011;BME280;10663;42.714;23.274;2022-09-09T01:28:39;94961.88;;;17.17;81.00
21011;BME280;10663;42.714;23.274;2022-09-09T01:30:17;94963.97;;;17.07;80.57
21011;BME280;10663;42.714;23.274;2022-09-09T01:32:46;94969.19;;;16.84;80.66
21011;BME280;10663;42.714;23.274;2022-09-09T01:34:18;94976.56;;;16.65;81.27
21011;BME280;10663;42.714;23.274;2022-09-09T01:36:07;94985.84;;;16.68;81.85
21011;BME280;10663;42.714;23.274;2022-09-09T01:37:47;94977.63;;;16.64;81.65
21011;BME280;10663;42.714;23.274;2022-09-09T01:39:18;94981.28;;;16.68;81.62
21011;BME280;10663;42.714;23.274;2022-09-09T01:40:53;94983.78;;;16.65;81.58
21011;BME280;10663;42.714;23.274;2022-09-09T01:42:29;94983.03;;;16.59;82.51
21011;BME280;10663;42.714;23.274;2022-09-09T01:44:00;94981.72;;;16.89;82.32
21011;BME280;10663;42.714;23.274;2022-09-09T01:45:33;94982.91;;;16.83;81.01
21011;BME280;10663;42.714;23.274;2022-09-09T01:47:05;94990.91;;;16.69;81.53
21011;BME280;10663;42.714;23.274;2022-09-09T01:48:37;94988.03;;;16.66;82.56
21011;BME280;10663;42.714;23.274;2022-09-09T01:50:15;94991.84;;;16.60;83.18
21011;BME280;10663;42.714;23.274;2022-09-09T01:51:49;94998.56;;;16.43;84.01
21011;BME280;10663;42.714;23.274;2022-09-09T01:53:23;94992.59;;;16.33;85.20
21011;BME280;10663;42.714;23.274;2022-09-09T01:54:54;94985.19;;;16.43;85.09
21011;BME280;10663;42.714;23.274;2022-09-09T01:56:40;94996.56;;;16.35;84.54
21011;BME280;10663;42.714;23.274;2022-09-09T02:00:08;94991.63;;;16.10;85.25
21011;BME280;10663;42.714;23.274;2022-09-09T02:01:53;94992.78;;;16.04;84.42
21011;BME280;10663;42.714;23.274;2022-09-09T02:03:28;94995.25;;;16.00;84.19
21011;BME280;10663;42.714;23.274;2022-09-09T02:05:17;94983.78;;;16.00;84.76
21011;BME280;10663;42.714;23.274;2022-09-09T02:06:55;94982.53;;;16.11;84.74
21011;BME280;10663;42.714;23.274;2022-09-09T02:08:45;94988.44;;;16.08;84.55
21011;BME280;10663;42.714;23.274;2022-09-09T02:10:27;94977.13;;;16.30;85.70
21011;BME280;10663;42.714;23.274;2022-09-09T02:12:14;94971.25;;;16.60;85.29
21011;BME280;10663;42.714;23.274;2022-09-09T02:14:01;94961.28;;;16.79;84.20
21011;BME280;10663;42.714;23.274;2022-09-09T02:16:37;94968.72;;;16.82;83.08
21011;BME280;10663;42.714;23.274;2022-09-09T02:17:50;94974.06;;;16.69;83.35
21011;BME280;10663;42.714;23.274;2022-09-09T02:19:46;94970.28;;;16.56;82.64
21011;BME280;10663;42.714;23.274;2022-09-09T02:21:32;94971.72;;;16.48;84.05
21011;BME280;10663;42.714;23.274;2022-09-09T02:23:06;94972.81;;;16.48;84.35
21011;BME280;10663;42.714;23.274;2022-09-09T02:24:40;94971.25;;;16.46;84.27
21011;BME280;10663;42.714;23.274;2022-09-09T02:26:19;94979.03;;;16.29;83.46
21011;BME280;10663;42.714;23.274;2022-09-09T02:27:57;94982.16;;;16.18;83.98
21011;BME280;10663;42.714;23.274;2022-09-09T02:29:41;94976.97;;;16.07;84.80
21011;BME280;10663;42.714;23.274;2022-09-09T02:31:17;94981.31;;;16.36;85.22
21011;BME280;10663;42.714;23.274;2022-09-09T02:32:51;94982.28;;;16.40;84.39
21011;BME280;10663;42.714;23.274;2022-09-09T02:34:31;94980.28;;;16.32;84.49
21011;BME280;10663;42.714;23.274;2022-09-09T02:36:07;94979.78;;;16.16;84.67
21011;BME280;10663;42.714;23.274;2022-09-09T02:37:41;94986.56;;;16.08;85.57
21011;BME280;10663;42.714;23.274;2022-09-09T02:39:13;94990.38;;;16.02;84.97
21011;BME280;10663;42.714;23.274;2022-09-09T02:40:45;94992.34;;;15.97;85.50
21011;BME280;10663;42.714;23.274;2022-09-09T02:42:16;94998.06;;;15.90;85.31
21011;BME280;10663;42.714;23.274;2022-09-09T02:43:48;94998.13;;;15.85;85.72
21011;BME280;10663;42.714;23.274;2022-09-09T02:45:23;94996.25;;;15.86;85.51
21011;BME280;10663;42.714;23.274;2022-09-09T02:47:08;95000.31;;;15.83;85.71
21011;BME280;10663;42.714;23.274;2022-09-09T02:51:24;94992.59;;;15.82;86.15
21011;BME280;10663;42.714;23.274;2022-09-09T02:54:31;94995.59;;;15.94;85.62
21011;BME280;10663;42.714;23.274;2022-09-09T02:56:14;94991.44;;;15.88;85.62
21011;BME280;10663;42.714;23.274;2022-09-09T02:57:49;94987.81;;;15.97;85.33
21011;BME280;10663;42.714;23.274;2022-09-09T02:59:24;94993.72;;;15.94;85.09
21011;BME280;10663;42.714;23.274;2022-09-09T03:00:57;94980.84;;;15.83;85.74
21011;BME280;10663;42.714;23.274;2022-09-09T03:02:30;94987.78;;;15.84;85.76
21011;BME280;10663;42.714;23.274;2022-09-09T03:04:07;94991.44;;;15.88;85.64
21011;BME280;10663;42.714;23.274;2022-09-09T03:05:38;95000.75;;;15.90;85.70
21011;BME280;10663;42.714;23.274;2022-09-09T03:07:10;94993.59;;;15.86;85.20
21011;BME280;10663;42.714;23.274;2022-09-09T03:08:41;94994.06;;;15.74;85.98
21011;BME280;10663;42.714;23.274;2022-09-09T03:10:13;94995.53;;;15.99;86.32
21011;BME280;10663;42.714;23.274;2022-09-09T03:11:44;94992.72;;;16.09;86.07
21011;BME280;10663;42.714;23.274;2022-09-09T03:13:15;94989.63;;;16.02;85.10
21011;BME280;10663;42.714;23.274;2022-09-09T03:14:47;94989.44;;;16.12;85.02
21011;BME280;10663;42.714;23.274;2022-09-09T03:16:18;94988.97;;;16.10;84.91
21011;BME280;10663;42.714;23.274;2022-09-09T03:17:52;94980.44;;;16.08;84.12
21011;BME280;10663;42.714;23.274;2022-09-09T03:19:24;94987.00;;;15.97;84.44
21011;BME280;10663;42.714;23.274;2022-09-09T03:20:55;94996.84;;;16.01;85.14
21011;BME280;10663;42.714;23.274;2022-09-09T03:22:27;94980.84;;;16.15;85.07
21011;BME280;10663;42.714;23.274;2022-09-09T03:24:00;94992.78;;;16.36;84.23
21011;BME280;10663;42.714;23.274;2022-09-09T03:25:30;94987.47;;;16.50;84.58
21011;BME280;10663;42.714;23.274;2022-09-09T03:27:03;94989.63;;;16.34;84.19
21011;BME280;10663;42.714;23.274;2022-09-09T03:28:34;94984.53;;;16.19;83.33
21011;BME280;10663;42.714;23.274;2022-09-09T03:30:07;94980.34;;;16.13;84.42
21011;BME280;10663;42.714;23.274;2022-09-09T03:31:39;94976.94;;;16.26;84.47
21011;BME280;10663;42.714;23.274;2022-09-09T03:33:10;94982.22;;;16.45;84.58
21011;BME280;10663;42.714;23.274;2022-09-09T03:34:42;94967.66;;;16.51;83.69
21011;BME280;10663;42.714;23.274;2022-09-09T03:36:17;94974.28;;;16.40;83.33
21011;BME280;10663;42.714;23.274;2022-09-09T03:37:47;94982.50;;;16.43;84.45
21011;BME280;10663;42.714;23.274;2022-09-09T03:39:19;94979.56;;;16.59;84.29
21011;BME280;10663;42.714;23.274;2022-09-09T03:40:52;94980.03;;;16.66;83.70
21011;BME280;10663;42.714;23.274;2022-09-09T03:42:28;94974.34;;;16.67;82.93
21011;BME280;10663;42.714;23.274;2022-09-09T03:44:00;94979.28;;;16.60;82.95
21011;BME280;10663;42.714;23.274;2022-09-09T03:45:34;94985.31;;;16.52;82.53
21011;BME280;10663;42.714;23.274;2022-09-09T03:47:05;94994.13;;;16.53;83.38
21011;BME280;10663;42.714;23.274;2022-09-09T03:48:38;94993.50;;;16.42;82.89
21011;BME280;10663;42.714;23.274;2022-09-09T03:50:10;94991.47;;;16.20;83.04
21011;BME280;10663;42.714;23.274;2022-09-09T03:51:46;94991.38;;;16.25;84.23
21011;BME280;10663;42.714;23.274;2022-09-09T03:53:19;94992.78;;;16.36;83.42
21011;BME280;10663;42.714;23.274;2022-09-09T03:54:51;94994.28;;;16.42;83.94
21011;BME280;10663;42.714;23.274;2022-09-09T03:56:22;94997.63;;;16.34;82.98
21011;BME280;10663;42.714;23.274;2022-09-09T03:57:53;94989.09;;;16.32;83.85
21011;BME280;10663;42.714;23.274;2022-09-09T03:59:24;94993.59;;;16.51;84.33
21011;BME280;10663;42.714;23.274;2022-09-09T04:01:02;94989.63;;;16.48;83.41
21011;BME280;10663;42.714;23.274;2022-09-09T04:02:33;94994.63;;;16.55;83.87
21011;BME280;10663;42.714;23.274;2022-09-09T04:04:04;94994.78;;;16.44;83.68
21011;BME280;10663;42.714;23.274;2022-09-09T04:05:35;94997.28;;;16.22;82.96
21011;BME280;10663;42.714;23.274;2022-09-09T04:07:10;94994.47;;;16.00;85.43
21011;BME280;10663;42.714;23.274;2022-09-09T04:08:44;94994.16;;;16.20;85.03
21011;BME280;10663;42.714;23.274;2022-09-09T04:10:17;94999.13;;;16.08;83.85
21011;BME280;10663;42.714;23.274;2022-09-09T04:11:48;94997.91;;;16.19;85.18
21011;BME280;10663;42.714;23.274;2022-09-09T04:13:19;94986.75;;;16.12;85.14
21011;BME280;10663;42.714;23.274;2022-09-09T04:14:51;94995.09;;;16.11;84.83
21011;BME280;10663;42.714;23.274;2022-09-09T04:16:22;94991.25;;;16.17;85.31
21011;BME280;10663;42.714;23.274;2022-09-09T04:17:53;94996.88;;;16.15;85.29
21011;BME280;10663;42.714;23.274;2022-09-09T04:19:24;94988.19;;;16.23;85.38
21011;BME280;10663;42.714;23.274;2022-09-09T04:20:55;94987.13;;;16.24;84.88
21011;BME280;10663;42.714;23.274;2022-09-09T04:22:29;94994.38;;;16.05;84.99
21011;BME280;10663;42.714;23.274;2022-09-09T04:24:01;94994.88;;;16.07;85.08
21011;BME280;10663;42.714;23.274;2022-09-09T04:25:32;94996.75;;;16.06;85.57
21011;BME280;10663;42.714;23.274;2022-09-09T04:27:04;95000.91;;;16.13;85.09
21011;BME280;10663;42.714;23.274;2022-09-09T04:28:38;95002.16;;;16.20;84.60
21011;BME280;10663;42.714;23.274;2022-09-09T04:30:14;94999.69;;;16.24;85.08
21011;BME280;10663;42.714;23.274;2022-09-09T04:31:45;94995.25;;;16.33;84.63
21011;BME280;10663;42.714;23.274;2022-09-09T04:33:18;94995.06;;;16.29;84.36
21011;BME280;10663;42.714;23.274;2022-09-09T04:34:49;95004.28;;;16.37;83.81
21011;BME280;10663;42.714;23.274;2022-09-09T04:36:20;94999.41;;;16.39;83.89
21011;BME280;10663;42.714;23.274;2022-09-09T04:37:53;95001.91;;;16.49;84.58
21011;BME280;10663;42.714;23.274;2022-09-09T04:39:24;95001.56;;;16.56;84.64
21011;BME280;10663;42.714;23.274;2022-09-09T04:40:56;94997.59;;;16.53;84.45
21011;BME280;10663;42.714;23.274;2022-09-09T04:42:27;95005.31;;;16.55;83.23
21011;BME280;10663;42.714;23.274;2022-09-09T04:43:58;94998.28;;;16.59;83.78
21011;BME280;10663;42.714;23.274;2022-09-09T04:45:31;94998.53;;;16.62;83.29
21011;BME280;10663;42.714;23.274;2022-09-09T04:47:03;94997.16;;;16.65;83.42
21011;BME280;10663;42.714;23.274;2022-09-09T04:48:34;94996.81;;;16.66;82.86
21011;BME280;10663;42.714;23.274;2022-09-09T04:50:06;94990.72;;;16.66;82.52
21011;BME280;10663;42.714;23.274;2022-09-09T04:51:38;94990.91;;;16.69;82.49
21011;BME280;10663;42.714;23.274;2022-09-09T04:53:09;94985.94;;;16.63;82.86
21011;BME280;10663;42.714;23.274;2022-09-09T04:54:42;94993.59;;;16.83;82.63
21011;BME280;10663;42.714;23.274;2022-09-09T04:56:17;94986.47;;;16.92;81.92
21011;BME280;10663;42.714;23.274;2022-09-09T04:58:08;94996.66;;;16.90;82.01
21011;BME280;10663;42.714;23.274;2022-09-09T04:59:39;94996.28;;;16.83;81.29
21011;BME280;10663;42.714;23.274;2022-09-09T05:01:12;94991.72;;;16.83;81.84
21011;BME280;10663;42.714;23.274;2022-09-09T05:02:45;94991.50;;;16.94;81.97
21011;BME280;10663;42.714;23.274;2022-09-09T05:04:17;94986.06;;;17.12;81.53
21011;BME280;10663;42.714;23.274;2022-09-09T05:05:49;94984.16;;;17.13;80.29
21011;BME280;10663;42.714;23.274;2022-09-09T05:07:20;94965.25;;;17.09;80.77
21011;BME280;10663;42.714;23.274;2022-09-09T05:08:52;94968.31;;;17.16;80.82
21011;BME280;10663;42.714;23.274;2022-09-09T05:10:27;94970.50;;;17.28;80.64
21011;BME280;10663;42.714;23.274;2022-09-09T05:11:58;94972.84;;;17.43;80.39
21011;BME280;10663;42.714;23.274;2022-09-09T05:13:36;94981.59;;;17.35;78.94
21011;BME280;10663;42.714;23.274;2022-09-09T05:15:07;94982.69;;;17.20;79.19
21011;BME280;10663;42.714;23.274;2022-09-09T05:16:38;94988.31;;;17.33;78.56
21011;BME280;10663;42.714;23.274;2022-09-09T05:18:10;94986.91;;;17.49;78.16
21011;BME280;10663;42.714;23.274;2022-09-09T05:19:41;94985.59;;;17.60;78.72
21011;BME280;10663;42.714;23.274;2022-09-09T05:21:14;94972.59;;;17.67;78.56
21011;BME280;10663;42.714;23.274;2022-09-09T05:22:45;94975.28;;;17.67;77.27
21011;BME280;10663;42.714;23.274;2022-09-09T05:24:16;94962.22;;;17.88;77.45
21011;BME280;10663;42.714;23.274;2022-09-09T05:25:55;94969.28;;;18.06;77.55
21011;BME280;10663;42.714;23.274;2022-09-09T05:27:27;94967.09;;;17.86;75.69
21011;BME280;10663;42.714;23.274;2022-09-09T05:28:58;94974.69;;;17.70;75.75
21011;BME280;10663;42.714;23.274;2022-09-09T05:30:31;94978.59;;;17.86;75.50
21011;BME280;10663;42.714;23.274;2022-09-09T05:32:03;94973.50;;;17.49;76.23
21011;BME280;10663;42.714;23.274;2022-09-09T05:33:35;94978.88;;;17.63;76.88
21011;BME280;10663;42.714;23.274;2022-09-09T05:35:06;94975.44;;;17.84;76.45
21011;BME280;10663;42.714;23.274;2022-09-09T05:36:38;94974.84;;;18.10;76.06
21011;BME280;10663;42.714;23.274;2022-09-09T05:38:08;94976.44;;;18.11;74.92
21011;BME280;10663;42.714;23.274;2022-09-09T05:39:40;94980.81;;;18.07;74.47
21011;BME280;10663;42.714;23.274;2022-09-09T05:41:11;94986.88;;;18.21;74.90
21011;BME280;10663;42.714;23.274;2022-09-09T05:42:42;94977.97;;;18.56;74.46
21011;BME280;10663;42.714;23.274;2022-09-09T05:44:13;94980.28;;;18.72;74.48
21011;BME280;10663;42.714;23.274;2022-09-09T05:45:45;94978.31;;;18.32;73.73
21011;BME280;10663;42.714;23.274;2022-09-09T05:47:17;94983.22;;;18.39;72.94
21011;BME280;10663;42.714;23.274;2022-09-09T05:48:49;94991.34;;;18.48;73.41
21011;BME280;10663;42.714;23.274;2022-09-09T05:50:22;94987.72;;;18.52;73.06
21011;BME280;10663;42.714;23.274;2022-09-09T05:51:55;94989.28;;;18.00;74.15
21011;BME280;10663;42.714;23.274;2022-09-09T05:53:28;94984.84;;;18.18;74.89
21011;BME280;10663;42.714;23.274;2022-09-09T05:55:03;94982.66;;;18.51;73.56
21011;BME280;10663;42.714;23.274;2022-09-09T05:56:35;94985.47;;;18.68;72.97
21011;BME280;10663;42.714;23.274;2022-09-09T05:58:06;94987.31;;;18.90;72.49
21011;BME280;10663;42.714;23.274;2022-09-09T05:59:36;94990.22;;;19.02;71.12
21011;BME280;10663;42.714;23.274;2022-09-09T06:01:11;94980.44;;;19.06;71.34
21011;BME280;10663;42.714;23.274;2022-09-09T06:02:42;94995.56;;;18.93;71.16
21011;BME280;10663;42.714;23.274;2022-09-09T06:04:16;94998.78;;;18.73;71.40
21011;BME280;10663;42.714;23.274;2022-09-09T06:05:47;95001.50;;;18.82;72.29
21011;BME280;10663;42.714;23.274;2022-09-09T06:07:18;94992.72;;;18.67;72.02
21011;BME280;10663;42.714;23.274;2022-09-09T06:08:50;94992.41;;;19.00;70.55
21011;BME280;10663;42.714;23.274;2022-09-09T06:10:22;94993.56;;;19.16;70.97
21011;BME280;10663;42.714;23.274;2022-09-09T06:11:53;94994.34;;;19.08;71.43
21011;BME280;10663;42.714;23.274;2022-09-09T06:13:26;94992.25;;;19.05;70.19
21011;BME280;10663;42.714;23.274;2022-09-09T06:14:57;94991.69;;;19.25;70.32
21011;BME280;10663;42.714;23.274;2022-09-09T06:16:29;94987.94;;;19.35;70.52
21011;BME280;10663;42.714;23.274;2022-09-09T06:18:00;94989.59;;;19.53;70.54
21011;BME280;10663;42.714;23.274;2022-09-09T06:19:31;94995.53;;;19.41;69.03
21011;BME280;10663;42.714;23.274;2022-09-09T06:21:05;94986.91;;;19.62;68.48
21011;BME280;10663;42.714;23.274;2022-09-09T06:22:39;94989.91;;;19.60;69.38
21011;BME280;10663;42.714;23.274;2022-09-09T06:24:11;94986.75;;;19.67;69.13
21011;BME280;10663;42.714;23.274;2022-09-09T06:25:44;94982.66;;;19.87;68.67
21011;BME280;10663;42.714;23.274;2022-09-09T06:27:15;94995.94;;;19.83;68.51
21011;BME280;10663;42.714;23.274;2022-09-09T06:28:48;94994.19;;;20.04;68.97
21011;BME280;10663;42.714;23.274;2022-09-09T06:30:20;94998.94;;;20.16;66.53
21011;BME280;10663;42.714;23.274;2022-09-09T06:31:50;94997.84;;;19.65;67.70
21011;BME280;10663;42.714;23.274;2022-09-09T06:33:25;94984.09;;;19.75;67.28
21011;BME280;10663;42.714;23.274;2022-09-09T06:34:56;94991.38;;;20.18;67.92
21011;BME280;10663;42.714;23.274;2022-09-09T06:36:29;94987.88;;;20.17;67.46
21011;BME280;10663;42.714;23.274;2022-09-09T06:38:01;94983.13;;;20.14;66.34
21011;BME280;10663;42.714;23.274;2022-09-09T06:39:32;94982.00;;;20.24;66.53
21011;BME280;10663;42.714;23.274;2022-09-09T06:41:03;94978.56;;;19.89;66.39
21011;BME280;10663;42.714;23.274;2022-09-09T06:42:37;94976.97;;;19.88;66.10
21011;BME280;10663;42.714;23.274;2022-09-09T06:44:36;94972.56;;;19.92;66.62
21011;BME280;10663;42.714;23.274;2022-09-09T06:46:12;94979.00;;;20.26;66.62
21011;BME280;10663;42.714;23.274;2022-09-09T06:47:44;94981.09;;;20.37;65.88
21011;BME280;10663;42.714;23.274;2022-09-09T06:49:15;94980.72;;;20.65;63.50
21011;BME280;10663;42.714;23.274;2022-09-09T06:50:46;94986.97;;;20.86;63.38
21011;BME280;10663;42.714;23.274;2022-09-09T06:52:17;94984.72;;;20.97;63.07
21011;BME280;10663;42.714;23.274;2022-09-09T06:53:56;94988.16;;;21.06;63.66
21011;BME280;10663;42.714;23.274;2022-09-09T06:55:28;94995.31;;;21.02;61.71
21011;BME280;10663;42.714;23.274;2022-09-09T06:56:59;94993.91;;;19.97;64.12
21011;BME280;10663;42.714;23.274;2022-09-09T06:58:31;94996.28;;;19.99;64.25
21011;BME280;10663;42.714;23.274;2022-09-09T07:00:05;94998.03;;;20.38;64.36
21011;BME280;10663;42.714;23.274;2022-09-09T07:01:39;94994.16;;;20.73;64.07
21011;BME280;10663;42.714;23.274;2022-09-09T07:03:16;94993.94;;;20.87;63.36
21011;BME280;10663;42.714;23.274;2022-09-09T07:04:48;94991.47;;;20.65;62.00
21011;BME280;10663;42.714;23.274;2022-09-09T07:06:27;95002.59;;;20.29;64.31
21011;BME280;10663;42.714;23.274;2022-09-09T07:07:59;94998.41;;;20.83;62.30
21011;BME280;10663;42.714;23.274;2022-09-09T07:09:30;94995.75;;;21.04;61.76
21011;BME280;10663;42.714;23.274;2022-09-09T07:11:07;94994.63;;;21.13;60.42
21011;BME280;10663;42.714;23.274;2022-09-09T07:12:40;94986.13;;;21.41;60.35
21011;BME280;10663;42.714;23.274;2022-09-09T07:14:14;94988.38;;;21.39;60.67
21011;BME280;10663;42.714;23.274;2022-09-09T07:15:49;94986.34;;;21.56;60.20
21011;BME280;10663;42.714;23.274;2022-09-09T07:17:20;94979.28;;;21.73;60.07
21011;BME280;10663;42.714;23.274;2022-09-09T07:18:52;94980.47;;;21.84;59.82
21011;BME280;10663;42.714;23.274;2022-09-09T07:20:23;94976.69;;;21.76;59.66
21011;BME280;10663;42.714;23.274;2022-09-09T07:21:55;94978.13;;;21.94;59.12
21011;BME280;10663;42.714;23.274;2022-09-09T07:23:28;94976.47;;;22.11;57.51
21011;BME280;10663;42.714;23.274;2022-09-09T07:25:00;94976.72;;;22.18;58.31
21011;BME280;10663;42.714;23.274;2022-09-09T07:26:34;94972.66;;;22.12;58.65
21011;BME280;10663;42.714;23.274;2022-09-09T07:28:06;94975.41;;;22.24;58.19
21011;BME280;10663;42.714;23.274;2022-09-09T07:29:38;94975.22;;;22.41;57.64
21011;BME280;10663;42.714;23.274;2022-09-09T07:31:23;94969.75;;;22.50;57.36
21011;BME280;10663;42.714;23.274;2022-09-09T07:32:55;94969.47;;;22.63;56.45
21011;BME280;10663;42.714;23.274;2022-09-09T07:34:27;94963.13;;;22.59;55.09
21011;BME280;10663;42.714;23.274;2022-09-09T07:36:19;94962.38;;;22.71;55.82
21011;BME280;10663;42.714;23.274;2022-09-09T07:37:52;94960.09;;;22.94;56.02
21011;BME280;10663;42.714;23.274;2022-09-09T07:39:24;94963.94;;;23.17;55.81
21011;BME280;10663;42.714;23.274;2022-09-09T07:41:05;94967.06;;;23.31;54.62
21011;BME280;10663;42.714;23.274;2022-09-09T07:42:37;94972.94;;;23.09;53.86
21011;BME280;10663;42.714;23.274;2022-09-09T07:44:10;94974.19;;;23.48;52.88
21011;BME280;10663;42.714;23.274;2022-09-09T07:45:42;94976.66;;;23.17;53.31
21011;BME280;10663;42.714;23.274;2022-09-09T07:47:13;94969.00;;;23.19;53.36
21011;BME280;10663;42.714;23.274;2022-09-09T07:48:50;94972.06;;;23.54;52.12
21011;BME280;10663;42.714;23.274;2022-09-09T07:50:26;94975.84;;;23.77;51.73
21011;BME280;10663;42.714;23.274;2022-09-09T07:51:57;94968.69;;;23.97;52.08
21011;BME280;10663;42.714;23.274;2022-09-09T07:53:29;94968.31;;;24.10;52.18
21011;BME280;10663;42.714;23.274;2022-09-09T07:55:02;94968.50;;;23.90;50.86
21011;BME280;10663;42.714;23.274;2022-09-09T07:56:35;94968.16;;;23.91;52.25
21011;BME280;10663;42.714;23.274;2022-09-09T07:58:08;94968.84;;;24.28;51.72
21011;BME280;10663;42.714;23.274;2022-09-09T07:59:38;94968.28;;;24.50;50.65
21011;BME280;10663;42.714;23.274;2022-09-09T08:01:13;94965.25;;;24.52;51.26
21011;BME280;10663;42.714;23.274;2022-09-09T08:02:45;94969.53;;;24.53;50.49
21011;BME280;10663;42.714;23.274;2022-09-09T08:04:18;94961.59;;;24.60;50.17
21011;BME280;10663;42.714;23.274;2022-09-09T08:05:51;94964.53;;;24.39;50.63
21011;BME280;10663;42.714;23.274;2022-09-09T08:07:22;94970.63;;;24.36;50.48
21011;BME280;10663;42.714;23.274;2022-09-09T08:08:58;94976.06;;;24.52;50.93
21011;BME280;10663;42.714;23.274;2022-09-09T08:10:29;94974.59;;;24.54;50.95
21011;BME280;10663;42.714;23.274;2022-09-09T08:12:01;94974.63;;;24.70;50.55
21011;BME280;10663;42.714;23.274;2022-09-09T08:13:35;94964.97;;;24.85;50.43
21011;BME280;10663;42.714;23.274;2022-09-09T08:15:07;94969.19;;;24.54;48.88
21011;BME280;10663;42.714;23.274;2022-09-09T08:16:41;94964.09;;;24.96;49.43
21011;BME280;10663;42.714;23.274;2022-09-09T08:18:12;94964.81;;;25.09;47.58
21011;BME280;10663;42.714;23.274;2022-09-09T08:19:43;94962.38;;;25.20;47.35
21011;BME280;10663;42.714;23.274;2022-09-09T08:21:25;94968.41;;;24.54;49.23
21011;BME280;10663;42.714;23.274;2022-09-09T08:22:59;94966.69;;;23.94;49.31
21011;BME280;10663;42.714;23.274;2022-09-09T08:24:30;94959.31;;;23.54;50.34
21011;BME280;10663;42.714;23.274;2022-09-09T08:26:14;94969.16;;;23.86;49.60
21011;BME280;10663;42.714;23.274;2022-09-09T08:27:45;94959.72;;;24.76;48.64
21011;BME280;10663;42.714;23.274;2022-09-09T08:29:17;94961.81;;;25.14;48.12
21011;BME280;10663;42.714;23.274;2022-09-09T08:30:49;94956.53;;;25.53;46.37
21011;BME280;10663;42.714;23.274;2022-09-09T08:32:22;94951.03;;;25.65;46.59
21011;BME280;10663;42.714;23.274;2022-09-09T08:33:54;94944.72;;;26.15;45.87
21011;BME280;10663;42.714;23.274;2022-09-09T08:35:26;94943.66;;;26.00;46.35
21011;BME280;10663;42.714;23.274;2022-09-09T08:36:57;94947.59;;;26.03;46.18
21011;BME280;10663;42.714;23.274;2022-09-09T08:38:36;94957.34;;;25.88;47.54
21011;BME280;10663;42.714;23.274;2022-09-09T08:40:17;94949.31;;;26.11;46.52
21011;BME280;10663;42.714;23.274;2022-09-09T08:43:46;94948.97;;;26.13;46.07
21011;BME280;10663;42.714;23.274;2022-09-09T08:45:31;94942.16;;;26.03;46.56
21011;BME280;10663;42.714;23.274;2022-09-09T08:49:01;94938.19;;;26.35;44.41
21011;BME280;10663;42.714;23.274;2022-09-09T08:50:36;94940.38;;;26.49;44.18
21011;BME280;10663;42.714;23.274;2022-09-09T08:53:35;94939.63;;;26.29;44.20
21011;BME280;10663;42.714;23.274;2022-09-09T08:54:34;94936.59;;;25.61;45.51